Aérodrome :
LOGIN :

S'inscrire | Disclaimer

   EN    FR    IT 

 










Légende :    VFR   VFR Marginal   IFR   IFR Intensif   IFR Très Intensif
Visi : 
Plafond : 
>= 8 km
>= 3000ft
5 à 8 km
1000 à 3000 ft
1500m à 5 km
500 à 1000 ft
800 à 1500m
200 à 500 ft
< 800m
< 200 ft
Symboles :   Orages  Brouillard  Fortes neiges  Fortes précipitations  Vent > 20 kt
SIGMETs :   Divers  Orages  Givrage  Turbulence  Onde Orograph.  Cendres Volcan.






- Altitude de l'aérodrome : 26 ft
- Code IATA : GLA


EGPF - Glasgow

DERNIER METAR :
  • 120520Z AUTO 29009KT 9999 SCT043/// //////TCU 04/03 Q0990

METARs EXPIRÉS :
  • 120450Z AUTO 29008KT 9999 NCD 04/03 Q0989
  • 120420Z AUTO 30007KT 9999 NCD 03/02 Q0989
  • 120350Z AUTO 19005KT 9999 NCD 02/01 Q0989
  • 120320Z AUTO VRB03KT 9999 NCD 01/01 Q0989
  • 120250Z AUTO 26006KT 9999 FEW048 03/02 Q0989

TAF TAF EGPF
Valide du 12 à 06h jusqu'au 13 à 06h UTC


120454Z 1206/1306 29009KT 9999 SCT025
PROB40
TEMPO 1206/1209 6000 SHRA BKN012
TEMPO 1302/1306 3000 BR
PROB30 1303/1306 0500 FG BKN001
ATIS : +44 141 887 7449



MET'MAP, la Météo Aéronautique d'un coup d'oeil ! - Copyright ORBIFLY Décembre 2007 - Disclaimer

ORBIFLY MET'MAP TEAM :

Programmation & Développement : Alexandra Zaïnal
Conception & Développement : Baudouin d'Aumeries
Co-Programmation & Développement : Marc-Olivier Méhu
Soutien technique & logistique : Manuel Goepfert

Contact : metmap@orbifly.com




SOURCES & CREDITS :

   NOAA